Weather at Teniente Rodolfo Marsh Martin Base

Public forecast

Using degrees Celsius for public forecast. Weather courtesy of forecast.io.

Current aviation weather report (METAR) for Teniente Rodolfo Marsh Martin Base

Retrieved 2020/11/01 00:00 UTC (5 minutes ago):

SCRM 010000Z 29013KT 0300 FG VV001 M03/M03 Q1012 NOSIG

Aviation forecast (TAF) for Teniente Rodolfo Marsh Martin Base

Forecast is more than 12 hours old.

Retrieved 2019/09/08 06:00 UTC (1 year ago):

TAF SCRM 080402Z 0806/0906 32015KT 2000 -SN BKN002 OVC008 TXM01/0806Z TNM05/0900Z TEMPO 0806/0809 34020G30KT BECMG 0806/0808 26015KT 5000 -SHSN SCT004 BKN009 BKN018 BECMG 0813/0815 9999 SCT015 SCT030 BECMG 0818/0820 26020G30KT SCT020 BKN035